createdAt,value
2023-04-08T00:02:18.681Z,12.02
2023-04-08T00:04:46.396Z,12.68
2023-04-08T00:07:13.667Z,11.48
2023-04-08T00:09:41.345Z,10.68
2023-04-08T00:12:08.868Z,12.82
2023-04-08T00:14:38.452Z,13.57
2023-04-08T00:17:05.940Z,13.00
2023-04-08T00:19:36.126Z,11.10
2023-04-08T00:22:03.980Z,13.07
2023-04-08T00:24:31.637Z,12.35
2023-04-08T00:26:59.027Z,10.35
2023-04-08T00:29:26.547Z,10.18
2023-04-08T00:32:09.123Z,12.30
2023-04-08T00:34:37.384Z,15.38
2023-04-08T00:37:04.722Z,12.48
2023-04-08T00:39:32.049Z,10.48
2023-04-08T00:41:59.368Z,14.45
2023-04-08T00:44:33.093Z,15.32
2023-04-08T00:47:00.779Z,10.80
2023-04-08T00:49:28.051Z,11.00
2023-04-08T00:51:56.183Z,11.57
2023-04-08T00:54:23.614Z,13.75
2023-04-08T00:56:51.177Z,11.43
2023-04-08T00:59:19.094Z,13.45
2023-04-08T01:02:07.177Z,11.15
2023-04-08T01:04:59.211Z,13.60
2023-04-08T01:07:41.653Z,14.27
2023-04-08T01:10:23.333Z,11.45
2023-04-08T01:12:59.888Z,11.90
2023-04-08T01:15:29.689Z,12.30
2023-04-08T01:18:00.237Z,12.75
2023-04-08T01:20:28.918Z,11.95
2023-04-08T01:23:01.461Z,11.20
2023-04-08T01:25:34.551Z,11.80
2023-04-08T01:28:07.513Z,11.80
2023-04-08T01:30:35.884Z,15.38
2023-04-08T01:33:05.402Z,14.70
2023-04-08T01:35:33.320Z,13.77
2023-04-08T01:38:01.684Z,13.50
2023-04-08T01:40:34.645Z,15.63
2023-04-08T01:43:05.936Z,13.95
2023-04-08T01:45:33.768Z,12.57
2023-04-08T01:48:02.466Z,13.23
2023-04-08T01:53:20.685Z,12.32
2023-04-08T01:55:52.196Z,12.02
2023-04-08T02:00:57.655Z,14.70
2023-04-08T02:03:27.642Z,15.35
2023-04-08T02:05:58.933Z,12.80
2023-04-08T02:08:26.590Z,13.33
2023-04-08T02:13:44.946Z,12.23
2023-04-08T02:16:34.152Z,14.00
2023-04-08T02:19:10.691Z,13.30
2023-04-08T02:21:47.094Z,13.13
2023-04-08T02:24:17.528Z,11.85
2023-04-08T02:26:45.859Z,10.80
2023-04-08T02:29:15.946Z,12.43
2023-04-08T02:31:44.713Z,12.60
2023-04-08T02:34:16.280Z,13.70
2023-04-08T02:36:46.371Z,14.18
2023-04-08T02:39:14.109Z,13.77
2023-04-08T02:41:44.323Z,10.88
2023-04-08T02:44:11.739Z,13.27
2023-04-08T02:46:41.906Z,13.02
2023-04-08T02:49:09.225Z,13.43
2023-04-08T02:51:41.263Z,14.27
2023-04-08T02:54:21.067Z,13.38
2023-04-08T02:56:48.894Z,14.15
2023-04-08T02:59:16.434Z,12.70
2023-04-08T03:01:45.212Z,11.45
2023-04-08T03:04:15.673Z,11.75
2023-04-08T03:06:42.974Z,12.48
2023-04-08T03:09:10.185Z,14.27
2023-04-08T03:11:37.475Z,13.48
2023-04-08T03:14:04.817Z,12.57
2023-04-08T03:16:32.286Z,12.93
2023-04-08T03:18:59.550Z,13.77
2023-04-08T03:21:27.200Z,12.90
2023-04-08T03:23:54.540Z,14.00
2023-04-08T03:26:22.236Z,14.77
2023-04-08T03:28:50.051Z,13.65
2023-04-08T03:31:17.785Z,13.75
2023-04-08T03:33:45.128Z,14.75
2023-04-08T03:36:12.508Z,13.60
2023-04-08T03:38:39.822Z,12.13
2023-04-08T03:41:08.226Z,13.88
2023-04-08T03:43:37.846Z,17.30
2023-04-08T03:46:05.609Z,14.38
2023-04-08T03:48:33.485Z,13.38
2023-04-08T03:51:00.886Z,13.82
2023-04-08T03:53:29.687Z,15.90
2023-04-08T03:55:57.864Z,18.00
2023-04-08T03:58:25.405Z,16.42
2023-04-08T04:00:53.489Z,18.58
2023-04-08T04:03:21.789Z,18.75
2023-04-08T04:05:49.603Z,18.23
2023-04-08T04:08:17.240Z,18.67
2023-04-08T04:10:44.581Z,18.58
2023-04-08T04:13:11.875Z,21.05
2023-04-08T04:15:40.762Z,17.58
2023-04-08T04:18:08.839Z,16.73
2023-04-08T04:20:38.295Z,17.17
2023-04-08T04:23:05.982Z,16.48
2023-04-08T04:25:33.270Z,21.08
2023-04-08T04:28:03.132Z,16.42
2023-04-08T04:30:30.460Z,20.60
2023-04-08T04:33:10.450Z,18.80
2023-04-08T04:35:44.409Z,16.10
2023-04-08T04:38:12.929Z,17.13
2023-04-08T04:40:40.866Z,19.92
2023-04-08T04:43:17.134Z,23.00
2023-04-08T04:46:35.726Z,17.45
2023-04-08T04:49:03.418Z,18.73
2023-04-08T04:51:33.412Z,20.80
2023-04-08T04:54:00.736Z,19.70
2023-04-08T04:56:29.448Z,19.00
2023-04-08T04:58:56.864Z,20.42
2023-04-08T05:01:29.085Z,20.27
2023-04-08T05:03:58.221Z,20.40
2023-04-08T05:06:27.270Z,19.05
2023-04-08T05:08:54.879Z,18.85
2023-04-08T05:11:22.354Z,21.65
2023-04-08T05:13:50.021Z,17.58
2023-04-08T05:16:18.002Z,18.50
2023-04-08T05:18:45.943Z,19.40
2023-04-08T05:21:13.176Z,18.20
2023-04-08T05:23:40.533Z,18.88
2023-04-08T05:26:09.027Z,22.80
2023-04-08T05:28:37.420Z,21.73
2023-04-08T05:31:04.905Z,21.17
2023-04-08T05:33:32.372Z,23.88
2023-04-08T05:35:59.599Z,19.48
2023-04-08T05:38:27.302Z,22.02
2023-04-08T05:40:54.800Z,20.05
2023-04-08T05:43:22.354Z,21.77
2023-04-08T05:45:49.850Z,22.85
2023-04-08T05:48:17.365Z,21.33
2023-04-08T05:50:44.918Z,23.40
2023-04-08T05:53:12.498Z,19.92
2023-04-08T05:55:42.992Z,26.88
2023-04-08T05:58:10.205Z,21.40
2023-04-08T06:00:37.658Z,23.60
2023-04-08T06:03:05.230Z,22.85
2023-04-08T06:05:33.016Z,23.17
2023-04-08T06:08:25.771Z,27.38
2023-04-08T06:10:53.589Z,21.73
2023-04-08T06:13:22.081Z,25.38
2023-04-08T06:15:50.053Z,23.50
2023-04-08T06:18:17.833Z,24.70
2023-04-08T06:20:45.153Z,25.90
2023-04-08T06:23:13.148Z,24.88
2023-04-08T06:25:40.549Z,22.85
2023-04-08T06:28:08.055Z,22.02
2023-04-08T06:30:35.366Z,22.35
2023-04-08T06:33:04.206Z,22.63
2023-04-08T06:35:34.985Z,22.20
2023-04-08T06:38:02.453Z,25.15
2023-04-08T06:40:30.564Z,23.73
2023-04-08T06:43:23.121Z,25.38
2023-04-08T06:45:50.895Z,22.17
2023-04-08T06:48:18.179Z,26.10
2023-04-08T06:50:45.778Z,24.05
2023-04-08T06:53:13.448Z,24.02
2023-04-08T06:55:41.189Z,22.05
2023-04-08T06:58:08.473Z,21.08
2023-04-08T07:00:35.894Z,24.77
2023-04-08T07:03:03.285Z,20.85
2023-04-08T07:05:31.949Z,21.77
2023-04-08T07:07:59.393Z,20.48
2023-04-08T07:10:26.715Z,19.92
2023-04-08T07:12:54.762Z,20.27
2023-04-08T07:15:21.952Z,21.58
2023-04-08T07:17:49.707Z,19.88
2023-04-08T07:20:17.071Z,17.30
2023-04-08T07:22:44.381Z,18.95
2023-04-08T07:25:12.873Z,22.88
2023-04-08T07:27:40.554Z,21.80
2023-04-08T07:30:08.672Z,22.77
2023-04-08T07:32:37.011Z,19.75
2023-04-08T07:35:04.923Z,18.75
2023-04-08T07:37:32.739Z,21.38
2023-04-08T07:39:59.996Z,20.27
2023-04-08T07:42:27.720Z,21.60
2023-04-08T07:44:55.862Z,19.40
2023-04-08T07:47:23.615Z,22.63
2023-04-08T07:49:51.142Z,29.17
2023-04-08T07:52:18.462Z,21.50
2023-04-08T07:54:45.822Z,18.85
2023-04-08T07:57:13.493Z,19.75
2023-04-08T07:59:41.960Z,18.85
2023-04-08T08:02:09.394Z,19.13
2023-04-08T08:04:37.080Z,17.27
2023-04-08T08:07:04.687Z,17.83
2023-04-08T08:09:32.299Z,17.60
2023-04-08T08:11:59.694Z,15.73
2023-04-08T08:14:27.278Z,17.13
2023-04-08T08:16:54.851Z,14.23
2023-04-08T08:19:22.299Z,13.43
2023-04-08T08:21:50.639Z,13.63
2023-04-08T08:24:18.098Z,14.70
2023-04-08T08:26:47.483Z,15.55
2023-04-08T08:29:15.060Z,15.10
2023-04-08T08:31:42.617Z,16.67
2023-04-08T08:34:09.842Z,15.27
2023-04-08T08:36:37.040Z,18.33
2023-04-08T08:39:04.864Z,17.55
2023-04-08T08:41:36.803Z,18.33
2023-04-08T08:44:07.197Z,19.83
2023-04-08T08:46:37.288Z,15.82
2023-04-08T08:49:04.743Z,12.25
2023-04-08T08:51:33.061Z,12.73
2023-04-08T08:54:04.564Z,15.45
2023-04-08T08:56:33.807Z,14.90
2023-04-08T08:59:01.491Z,17.77
2023-04-08T09:01:38.838Z,15.57
2023-04-08T09:04:20.869Z,15.35
2023-04-08T09:06:51.201Z,15.23
2023-04-08T09:09:18.886Z,18.00
2023-04-08T09:11:47.733Z,18.23
2023-04-08T09:14:19.559Z,15.43
2023-04-08T09:16:47.487Z,13.25
2023-04-08T09:19:15.090Z,14.80
2023-04-08T09:21:42.703Z,14.60
2023-04-08T09:24:27.197Z,14.32
2023-04-08T09:27:33.974Z,16.38
2023-04-08T09:30:14.975Z,20.83
2023-04-08T09:33:07.717Z,14.85
2023-04-08T09:35:35.302Z,12.32
2023-04-08T09:38:02.917Z,13.38
2023-04-08T09:40:37.612Z,14.98
2023-04-08T09:43:06.610Z,13.15
2023-04-08T09:45:36.671Z,13.43
2023-04-08T09:48:13.837Z,13.02
2023-04-08T09:50:51.940Z,13.95
2023-04-08T09:53:31.902Z,12.98
2023-04-08T09:56:00.919Z,13.90
2023-04-08T09:58:29.976Z,13.43
2023-04-08T10:00:57.835Z,13.10
2023-04-08T10:03:42.320Z,13.38
2023-04-08T10:06:19.594Z,13.02
2023-04-08T10:08:47.084Z,13.05
2023-04-08T10:11:17.930Z,11.25
2023-04-08T10:13:46.048Z,13.13
2023-04-08T10:16:27.753Z,12.18
2023-04-08T10:18:58.365Z,13.18
2023-04-08T10:21:52.141Z,11.80
2023-04-08T10:24:24.372Z,13.15
2023-04-08T10:26:51.590Z,12.38
2023-04-08T10:29:31.847Z,12.95
2023-04-08T10:31:59.146Z,12.82
2023-04-08T10:34:27.558Z,13.98
2023-04-08T10:36:57.133Z,13.15
2023-04-08T10:39:26.984Z,12.20
2023-04-08T10:41:54.312Z,12.23
2023-04-08T10:44:26.962Z,11.68
2023-04-08T10:46:55.117Z,10.45
2023-04-08T10:49:22.734Z,10.23
2023-04-08T10:51:50.033Z,10.13
2023-04-08T10:54:19.056Z,9.50
2023-04-08T10:56:53.724Z,10.27
2023-04-08T10:59:34.959Z,11.02
2023-04-08T11:02:03.169Z,10.80
2023-04-08T11:04:30.485Z,11.05
2023-04-08T11:06:58.678Z,11.00
2023-04-08T11:09:25.815Z,10.05
2023-04-08T11:11:53.996Z,11.23
2023-04-08T11:14:22.654Z,10.75
2023-04-08T11:16:50.169Z,11.13
2023-04-08T11:19:18.409Z,9.73
2023-04-08T11:21:47.198Z,9.43
2023-04-08T11:24:14.556Z,9.07
2023-04-08T11:26:42.859Z,9.57
2023-04-08T11:29:14.462Z,9.98
2023-04-08T11:31:44.149Z,9.48
2023-04-08T11:34:14.590Z,9.48
2023-04-08T11:36:42.396Z,9.80
2023-04-08T11:39:12.422Z,9.18
2023-04-08T11:41:43.289Z,8.55
2023-04-08T11:44:10.845Z,9.37
2023-04-08T11:46:38.224Z,10.32
2023-04-08T11:49:08.179Z,10.55
2023-04-08T11:51:54.756Z,9.88
2023-04-08T11:54:32.714Z,9.98
2023-04-08T11:57:04.320Z,9.75
2023-04-08T12:01:59.382Z,10.43
2023-04-08T12:04:26.891Z,11.57
2023-04-08T12:06:55.005Z,9.32
2023-04-08T12:09:23.616Z,9.32
2023-04-08T12:11:50.976Z,9.43
2023-04-08T12:14:18.210Z,12.13
2023-04-08T12:16:45.480Z,11.07
2023-04-08T12:19:12.866Z,9.70
2023-04-08T12:21:40.189Z,8.90
2023-04-08T12:24:32.659Z,10.77
2023-04-08T12:26:59.828Z,11.23
2023-04-08T12:29:26.990Z,9.95
2023-04-08T12:31:56.374Z,11.30
2023-04-08T12:34:23.863Z,10.18
2023-04-08T12:37:29.456Z,11.55
2023-04-08T12:39:56.995Z,10.82
2023-04-08T12:42:24.203Z,10.75
2023-04-08T12:44:51.548Z,9.90
2023-04-08T12:50:00.617Z,10.82
2023-04-08T12:52:28.893Z,13.63
2023-04-08T12:55:32.461Z,12.35
2023-04-08T12:58:02.746Z,14.80
2023-04-08T13:00:30.350Z,13.80
2023-04-08T13:03:22.820Z,16.00
2023-04-08T13:05:50.398Z,15.52
2023-04-08T13:08:19.354Z,14.80
2023-04-08T13:10:46.734Z,16.90
2023-04-08T13:13:14.463Z,16.55
2023-04-08T13:15:44.215Z,17.83
2023-04-08T13:18:11.364Z,19.95
2023-04-08T13:20:38.927Z,19.10
2023-04-08T13:23:06.291Z,21.70
2023-04-08T13:25:33.690Z,20.23
2023-04-08T13:28:01.291Z,22.02
2023-04-08T13:30:28.670Z,19.58
2023-04-08T13:33:05.578Z,21.17
2023-04-08T13:35:32.931Z,25.65
2023-04-08T13:38:00.217Z,19.42
2023-04-08T13:40:28.208Z,20.27
2023-04-08T13:43:03.959Z,21.35
2023-04-08T13:45:31.375Z,23.13
2023-04-08T13:47:59.935Z,19.05
2023-04-08T13:50:27.202Z,18.05
2023-04-08T13:53:03.973Z,19.10
2023-04-08T13:55:31.327Z,18.25
2023-04-08T13:57:58.471Z,16.60
2023-04-08T14:00:26.827Z,18.02
2023-04-08T14:02:54.162Z,18.52
2023-04-08T14:05:21.816Z,19.38
2023-04-08T14:07:54.974Z,20.80
2023-04-08T14:10:22.376Z,20.67
2023-04-08T14:12:49.655Z,19.45
2023-04-08T14:15:16.952Z,20.95
2023-04-08T14:17:44.330Z,18.08
2023-04-08T14:20:11.526Z,20.30
2023-04-08T14:22:44.824Z,21.40
2023-04-08T14:25:12.360Z,18.50
2023-04-08T14:27:50.944Z,20.38
2023-04-08T14:30:22.405Z,21.25
2023-04-08T14:32:49.862Z,19.73
2023-04-08T14:35:32.706Z,18.30
2023-04-08T14:38:00.393Z,19.80
2023-04-08T14:40:27.594Z,17.25
2023-04-08T14:42:54.887Z,19.23
2023-04-08T14:45:22.157Z,17.95
2023-04-08T14:47:49.468Z,18.67
2023-04-08T14:50:16.971Z,19.00
2023-04-08T14:52:45.482Z,23.58
2023-04-08T14:55:12.693Z,21.85
2023-04-08T14:57:39.986Z,24.63
2023-04-08T15:00:08.577Z,22.90
2023-04-08T15:02:36.166Z,22.85
2023-04-08T15:05:04.054Z,22.23
2023-04-08T15:07:35.285Z,24.50
2023-04-08T15:10:02.887Z,25.92
2023-04-08T15:12:30.619Z,29.08
2023-04-08T15:15:04.918Z,27.63
2023-04-08T15:17:32.634Z,33.85
2023-04-08T15:20:00.034Z,39.00
2023-04-08T15:22:27.348Z,32.22
2023-04-08T15:24:54.461Z,36.17
2023-04-08T15:27:21.831Z,33.83
2023-04-08T15:29:58.755Z,33.40
2023-04-08T15:32:30.877Z,31.95
2023-04-08T15:34:58.557Z,34.30
2023-04-08T15:37:31.113Z,30.15
2023-04-08T15:39:58.973Z,27.08
2023-04-08T15:42:26.614Z,27.60
2023-04-08T15:44:53.907Z,27.83
2023-04-08T15:47:21.272Z,24.33
2023-04-08T15:49:48.946Z,23.92
2023-04-08T15:52:16.949Z,27.00
2023-04-08T15:54:44.407Z,25.25
2023-04-08T15:57:13.026Z,26.52
2023-04-08T15:59:40.383Z,27.75
2023-04-08T16:02:08.273Z,26.67
2023-04-08T16:04:35.896Z,29.13
2023-04-08T16:07:04.373Z,24.98
2023-04-08T16:09:35.036Z,26.90
2023-04-08T16:12:02.818Z,29.37
2023-04-08T16:14:30.626Z,26.40
2023-04-08T16:16:57.803Z,27.90
2023-04-08T16:19:25.389Z,25.15
2023-04-08T16:21:52.860Z,25.77
2023-04-08T16:24:20.930Z,28.42
2023-04-08T16:26:48.172Z,26.65
2023-04-08T16:29:16.152Z,25.77
2023-04-08T16:31:43.557Z,23.90
2023-04-08T16:34:12.525Z,26.77
2023-04-08T16:36:39.798Z,23.48
2023-04-08T16:39:07.261Z,23.63
2023-04-08T16:41:34.493Z,26.15
2023-04-08T16:44:01.733Z,24.15
2023-04-08T16:46:29.036Z,27.08
2023-04-08T16:48:56.442Z,21.33
2023-04-08T16:51:23.731Z,23.20
2023-04-08T16:53:51.786Z,21.50
2023-04-08T16:56:19.366Z,21.88
2023-04-08T16:58:46.755Z,19.63
2023-04-08T17:01:16.685Z,20.10
2023-04-08T17:03:44.439Z,18.55
2023-04-08T17:06:13.875Z,20.70
2023-04-08T17:11:56.036Z,19.15
2023-04-08T17:14:52.958Z,16.45
2023-04-08T17:17:20.480Z,20.77
2023-04-08T17:19:48.269Z,16.45
2023-04-08T17:22:15.897Z,15.57
2023-04-08T17:24:47.761Z,17.63
2023-04-08T17:27:15.749Z,17.13
2023-04-08T17:29:43.244Z,17.40
2023-04-08T17:32:11.128Z,15.68
2023-04-08T17:34:39.181Z,15.10
2023-04-08T17:37:06.609Z,16.45
2023-04-08T17:39:33.944Z,17.63
2023-04-08T17:53:03.051Z,18.45
2023-04-08T17:55:32.452Z,21.92
2023-04-08T17:58:09.413Z,20.00
2023-04-08T18:00:44.050Z,17.08
2023-04-08T18:03:11.616Z,18.63
2023-04-08T18:05:39.323Z,17.73
2023-04-08T18:08:25.324Z,15.13
2023-04-08T18:10:52.690Z,16.27
2023-04-08T18:13:19.974Z,16.00
2023-04-08T18:15:47.396Z,18.67
2023-04-08T18:18:19.569Z,17.65
2023-04-08T18:20:46.815Z,16.10
2023-04-08T18:23:14.076Z,22.85
2023-04-08T18:25:42.906Z,22.98
2023-04-08T18:28:11.099Z,21.60
2023-04-08T18:30:38.343Z,21.30
2023-04-08T18:33:05.760Z,19.05
2023-04-08T18:35:32.997Z,38.33
2023-04-08T18:38:26.214Z,35.65
2023-04-08T18:40:53.537Z,38.25
2023-04-08T18:43:21.492Z,36.85
2023-04-08T18:45:48.700Z,34.72
2023-04-08T18:48:16.219Z,32.13
2023-04-08T18:50:44.320Z,36.95
2023-04-08T18:53:37.443Z,26.77
2023-04-08T18:56:05.229Z,28.45
2023-04-08T18:58:32.531Z,23.00
2023-04-08T19:00:59.674Z,25.13
2023-04-08T19:03:27.476Z,22.08
2023-04-08T19:05:55.781Z,19.35
2023-04-08T19:08:30.621Z,26.75
2023-04-08T19:10:58.025Z,19.48
2023-04-08T19:13:25.447Z,22.15
2023-04-08T19:15:53.174Z,20.52
2023-04-08T19:18:21.582Z,18.98
2023-04-08T19:20:49.254Z,16.50
2023-04-08T19:23:16.582Z,21.40
2023-04-08T19:25:44.172Z,20.52
2023-04-08T19:28:14.200Z,21.80
2023-04-08T19:30:44.391Z,23.15
2023-04-08T19:33:11.632Z,21.63
2023-04-08T19:35:39.279Z,20.27
2023-04-08T19:38:06.517Z,24.20
2023-04-08T19:40:33.788Z,22.65
2023-04-08T19:43:01.131Z,23.23
2023-04-08T19:45:28.281Z,23.98
2023-04-08T19:47:55.677Z,22.92
2023-04-08T19:50:23.158Z,19.60
2023-04-08T19:52:50.502Z,18.80
2023-04-08T19:55:33.215Z,21.08
2023-04-08T19:58:00.652Z,19.33
2023-04-08T20:00:29.290Z,20.33
2023-04-08T20:02:57.237Z,19.58
2023-04-08T20:05:24.834Z,22.92
2023-04-08T20:07:52.249Z,17.23
2023-04-08T20:10:20.751Z,16.77
2023-04-08T20:12:47.921Z,18.58
2023-04-08T20:15:24.122Z,16.73
2023-04-08T20:17:52.943Z,18.05
2023-04-08T20:20:35.001Z,16.95
2023-04-08T20:23:02.536Z,18.08
2023-04-08T20:25:32.245Z,18.15
2023-04-08T20:27:59.604Z,17.20
2023-04-08T20:30:26.755Z,18.75
2023-04-08T20:33:20.071Z,15.68
2023-04-08T20:35:49.495Z,17.00
2023-04-08T20:38:16.853Z,17.63
2023-04-08T20:40:44.417Z,17.65
2023-04-08T20:43:11.984Z,17.33
2023-04-08T20:45:39.231Z,17.52
2023-04-08T20:48:07.559Z,16.73
2023-04-08T20:50:35.256Z,18.98
2023-04-08T20:53:03.081Z,18.92
2023-04-08T20:55:30.665Z,19.08
2023-04-08T20:57:58.054Z,17.85
2023-04-08T21:00:25.553Z,19.45
2023-04-08T21:02:52.861Z,19.38
2023-04-08T21:05:36.708Z,19.67
2023-04-08T21:08:04.050Z,17.45
2023-04-08T21:10:31.365Z,18.27
2023-04-08T21:13:00.115Z,18.35
2023-04-08T21:15:28.257Z,19.80
2023-04-08T21:18:13.892Z,21.08
2023-04-08T21:20:44.375Z,18.98
2023-04-08T21:23:12.603Z,16.70
2023-04-08T21:25:40.008Z,16.77
2023-04-08T21:28:07.107Z,18.83
2023-04-08T21:30:34.504Z,19.02
2023-04-08T21:33:01.762Z,18.58
2023-04-08T21:35:29.263Z,18.65
2023-04-08T21:37:58.692Z,19.75
2023-04-08T21:40:26.329Z,19.10
2023-04-08T21:42:53.739Z,21.15
2023-04-08T21:45:21.021Z,17.15
2023-04-08T21:47:50.307Z,18.88
2023-04-08T21:50:17.840Z,15.73
2023-04-08T21:52:44.817Z,18.08
2023-04-08T21:55:11.770Z,16.80
2023-04-08T21:57:39.319Z,16.02
2023-04-08T22:00:13.193Z,14.50
2023-04-08T22:02:43.951Z,14.63
2023-04-08T22:05:11.820Z,15.65
2023-04-08T22:07:38.738Z,15.90
2023-04-08T22:10:06.168Z,18.63
2023-04-08T22:12:34.130Z,18.45
2023-04-08T22:15:01.192Z,16.05
2023-04-08T22:17:28.178Z,17.02
2023-04-08T22:19:55.548Z,16.58
2023-04-08T22:22:22.530Z,16.88
2023-04-08T22:24:49.444Z,16.02
2023-04-08T22:27:16.487Z,17.13
2023-04-08T22:29:43.512Z,17.42
2023-04-08T22:32:10.577Z,16.27
2023-04-08T22:34:37.553Z,16.65
2023-04-08T22:37:04.532Z,17.65
2023-04-08T22:39:31.966Z,16.92
2023-04-08T22:41:58.815Z,15.65
2023-04-08T22:44:25.926Z,16.15
2023-04-08T22:46:52.802Z,17.05
2023-04-08T22:49:19.813Z,16.98
2023-04-08T22:51:47.266Z,15.77
2023-04-08T22:54:14.293Z,16.65
2023-04-08T22:56:41.509Z,17.73
2023-04-08T22:59:08.552Z,15.40
2023-04-08T23:01:36.161Z,14.98
2023-04-08T23:04:03.531Z,15.43
2023-04-08T23:06:31.338Z,16.70
2023-04-08T23:08:58.369Z,16.83
2023-04-08T23:11:25.874Z,17.40
2023-04-08T23:13:52.946Z,16.65
2023-04-08T23:16:19.834Z,17.52
2023-04-08T23:18:46.789Z,18.02
2023-04-08T23:21:13.731Z,14.70
2023-04-08T23:23:40.844Z,15.48
2023-04-08T23:26:07.937Z,16.02
2023-04-08T23:28:34.958Z,18.77
2023-04-08T23:31:04.657Z,17.83
2023-04-08T23:33:31.563Z,16.25
2023-04-08T23:35:58.527Z,17.60
2023-04-08T23:38:25.683Z,16.73
2023-04-08T23:40:52.709Z,15.48
2023-04-08T23:43:19.669Z,15.27
2023-04-08T23:45:46.568Z,16.42
2023-04-08T23:48:13.479Z,14.68
2023-04-08T23:50:40.725Z,15.45
2023-04-08T23:53:07.666Z,14.75
2023-04-08T23:55:34.578Z,13.63
2023-04-08T23:58:01.520Z,11.25
